KCDI

Cambridge Municipal Airport

Cambridge, Ohio, USA
METAR KCDI 180815Z AUTO 20003KT 10SM BKN017 OVC048 04/01 A3010 RMK AO2 T00380012
Observed Flight Rules
Dec-18 @ 08:15 UTC (28 minutes ago) Marginal Visual Flight Rules
Wind Visibility Clouds
200° at 3 knots 10 miles
  • Broken at 1,700' AGL
  • Overcast at 4,800' AGL
Temperatures Readings
Current 4°C / 39°F
Dewpoint 1°C / 34°F
Humidity 81%
Altimeter 30.1" Hg
Pressure 1019 hPa
Elevation 244
METAR KCDI 180815Z AUTO 20003KT 10SM BKN017 OVC048 04/01 A3010 RMK AO2 T00380012
Observed Flight Rules
Dec-18 @ 08:15 UTC
(28 minutes ago)
MVFR
Wind Visibility
200° at 3 knots 10 miles
Clouds
  • Broken at 1,700' AGL
  • Overcast at 4,800' AGL
Temperature Dewpoint
4°C / 39°F 1°C / 34°F
Humidity Altimeter Pressure
81% 30.1" Hg 1019 hPa